sensor_id;sensor_type;location;lat;lon;timestamp;P1;durP1;ratioP1;P2;durP2;ratioP2
9445;SDS011;4761;49.490;10.908;2022-11-20T00:02:22;7.90;;;7.10;;
9445;SDS011;4761;49.490;10.908;2022-11-20T00:04:48;7.73;;;7.03;;
9445;SDS011;4761;49.490;10.908;2022-11-20T00:07:14;8.13;;;7.30;;
9445;SDS011;4761;49.490;10.908;2022-11-20T00:09:39;7.73;;;7.03;;
9445;SDS011;4761;49.490;10.908;2022-11-20T00:12:05;7.23;;;6.53;;
9445;SDS011;4761;49.490;10.908;2022-11-20T00:14:31;7.00;;;6.40;;
9445;SDS011;4761;49.490;10.908;2022-11-20T00:16:56;8.30;;;7.40;;
9445;SDS011;4761;49.490;10.908;2022-11-20T00:19:22;7.60;;;6.90;;
9445;SDS011;4761;49.490;10.908;2022-11-20T00:21:47;7.73;;;7.03;;
9445;SDS011;4761;49.490;10.908;2022-11-20T00:24:16;7.30;;;6.60;;
9445;SDS011;4761;49.490;10.908;2022-11-20T00:26:41;7.50;;;6.70;;
9445;SDS011;4761;49.490;10.908;2022-11-20T00:29:08;7.57;;;6.87;;
9445;SDS011;4761;49.490;10.908;2022-11-20T00:31:35;7.57;;;6.87;;
9445;SDS011;4761;49.490;10.908;2022-11-20T00:34:01;7.50;;;6.70;;
9445;SDS011;4761;49.490;10.908;2022-11-20T00:36:27;7.23;;;6.53;;
9445;SDS011;4761;49.490;10.908;2022-11-20T00:38:54;7.50;;;6.80;;
9445;SDS011;4761;49.490;10.908;2022-11-20T00:41:22;7.07;;;6.47;;
9445;SDS011;4761;49.490;10.908;2022-11-20T00:43:48;7.20;;;6.50;;
9445;SDS011;4761;49.490;10.908;2022-11-20T00:46:18;7.60;;;6.90;;
9445;SDS011;4761;49.490;10.908;2022-11-20T00:48:45;7.90;;;7.10;;
9445;SDS011;4761;49.490;10.908;2022-11-20T00:51:11;8.10;;;7.23;;
9445;SDS011;4761;49.490;10.908;2022-11-20T00:53:39;7.70;;;7.00;;
9445;SDS011;4761;49.490;10.908;2022-11-20T00:56:05;7.40;;;6.70;;
9445;SDS011;4761;49.490;10.908;2022-11-20T00:58:35;8.37;;;7.57;;
9445;SDS011;4761;49.490;10.908;2022-11-20T01:01:20;8.17;;;7.37;;
9445;SDS011;4761;49.490;10.908;2022-11-20T01:03:51;8.20;;;7.37;;
9445;SDS011;4761;49.490;10.908;2022-11-20T01:06:21;8.27;;;7.40;;
9445;SDS011;4761;49.490;10.908;2022-11-20T01:08:53;8.23;;;7.43;;
9445;SDS011;4761;49.490;10.908;2022-11-20T01:11:21;8.20;;;7.40;;
9445;SDS011;4761;49.490;10.908;2022-11-20T01:14:06;8.10;;;7.30;;
9445;SDS011;4761;49.490;10.908;2022-11-20T01:16:39;8.40;;;7.50;;
9445;SDS011;4761;49.490;10.908;2022-11-20T01:19:07;8.57;;;7.73;;
9445;SDS011;4761;49.490;10.908;2022-11-20T01:21:37;9.23;;;7.83;;
9445;SDS011;4761;49.490;10.908;2022-11-20T01:24:04;7.93;;;7.13;;
9445;SDS011;4761;49.490;10.908;2022-11-20T01:26:33;8.30;;;7.50;;
9445;SDS011;4761;49.490;10.908;2022-11-20T01:29:02;8.43;;;7.53;;
9445;SDS011;4761;49.490;10.908;2022-11-20T01:31:33;8.30;;;7.50;;
9445;SDS011;4761;49.490;10.908;2022-11-20T01:34:04;8.53;;;7.73;;
9445;SDS011;4761;49.490;10.908;2022-11-20T01:36:31;8.47;;;7.67;;
9445;SDS011;4761;49.490;10.908;2022-11-20T01:38:59;8.80;;;8.00;;
9445;SDS011;4761;49.490;10.908;2022-11-20T01:41:27;9.10;;;8.17;;
9445;SDS011;4761;49.490;10.908;2022-11-20T01:44:16;8.40;;;7.60;;
9445;SDS011;4761;49.490;10.908;2022-11-20T01:47:04;8.67;;;7.87;;
9445;SDS011;4761;49.490;10.908;2022-11-20T01:49:37;8.67;;;7.87;;
9445;SDS011;4761;49.490;10.908;2022-11-20T01:52:13;9.13;;;8.23;;
9445;SDS011;4761;49.490;10.908;2022-11-20T01:54:52;8.53;;;7.73;;
9445;SDS011;4761;49.490;10.908;2022-11-20T01:57:26;8.90;;;8.07;;
9445;SDS011;4761;49.490;10.908;2022-11-20T01:59:57;8.57;;;7.77;;
9445;SDS011;4761;49.490;10.908;2022-11-20T02:02:26;8.60;;;7.80;;
9445;SDS011;4761;49.490;10.908;2022-11-20T02:04:53;8.50;;;7.70;;
9445;SDS011;4761;49.490;10.908;2022-11-20T02:07:20;8.90;;;8.03;;
9445;SDS011;4761;49.490;10.908;2022-11-20T02:09:47;7.77;;;7.07;;
9445;SDS011;4761;49.490;10.908;2022-11-20T02:12:12;9.47;;;8.50;;
9445;SDS011;4761;49.490;10.908;2022-11-20T02:14:58;8.43;;;7.63;;
9445;SDS011;4761;49.490;10.908;2022-11-20T02:17:24;8.90;;;8.00;;
9445;SDS011;4761;49.490;10.908;2022-11-20T02:19:50;8.80;;;8.00;;
9445;SDS011;4761;49.490;10.908;2022-11-20T02:22:39;8.80;;;8.00;;
9445;SDS011;4761;49.490;10.908;2022-11-20T02:25:13;8.77;;;7.93;;
9445;SDS011;4761;49.490;10.908;2022-11-20T02:27:39;9.30;;;8.40;;
9445;SDS011;4761;49.490;10.908;2022-11-20T02:30:05;8.37;;;7.57;;
9445;SDS011;4761;49.490;10.908;2022-11-20T02:32:36;8.53;;;7.70;;
9445;SDS011;4761;49.490;10.908;2022-11-20T02:35:10;8.33;;;7.60;;
9445;SDS011;4761;49.490;10.908;2022-11-20T02:37:56;9.50;;;8.60;;
9445;SDS011;4761;49.490;10.908;2022-11-20T02:40:24;9.73;;;8.83;;
9445;SDS011;4761;49.490;10.908;2022-11-20T02:42:56;8.97;;;8.10;;
9445;SDS011;4761;49.490;10.908;2022-11-20T02:45:22;8.73;;;7.93;;
9445;SDS011;4761;49.490;10.908;2022-11-20T02:47:49;8.83;;;8.03;;
9445;SDS011;4761;49.490;10.908;2022-11-20T02:50:14;9.20;;;8.20;;
9445;SDS011;4761;49.490;10.908;2022-11-20T02:52:40;8.60;;;7.80;;
9445;SDS011;4761;49.490;10.908;2022-11-20T02:55:06;8.80;;;8.00;;
9445;SDS011;4761;49.490;10.908;2022-11-20T02:57:32;8.70;;;7.80;;
9445;SDS011;4761;49.490;10.908;2022-11-20T02:59:58;8.17;;;7.37;;
9445;SDS011;4761;49.490;10.908;2022-11-20T03:02:23;8.10;;;7.33;;
9445;SDS011;4761;49.490;10.908;2022-11-20T03:04:49;8.90;;;8.10;;
9445;SDS011;4761;49.490;10.908;2022-11-20T03:07:14;7.93;;;7.20;;
9445;SDS011;4761;49.490;10.908;2022-11-20T03:09:40;8.50;;;7.70;;
9445;SDS011;4761;49.490;10.908;2022-11-20T03:12:05;8.37;;;7.47;;
9445;SDS011;4761;49.490;10.908;2022-11-20T03:14:31;8.57;;;7.77;;
9445;SDS011;4761;49.490;10.908;2022-11-20T03:16:57;8.20;;;7.40;;
9445;SDS011;4761;49.490;10.908;2022-11-20T03:19:22;8.40;;;7.60;;
9445;SDS011;4761;49.490;10.908;2022-11-20T03:21:48;8.70;;;7.90;;
9445;SDS011;4761;49.490;10.908;2022-11-20T03:24:14;8.40;;;7.60;;
9445;SDS011;4761;49.490;10.908;2022-11-20T03:26:40;8.30;;;7.50;;
9445;SDS011;4761;49.490;10.908;2022-11-20T03:29:06;8.23;;;7.43;;
9445;SDS011;4761;49.490;10.908;2022-11-20T03:31:36;7.57;;;6.87;;
9445;SDS011;4761;49.490;10.908;2022-11-20T03:34:05;8.10;;;7.30;;
9445;SDS011;4761;49.490;10.908;2022-11-20T03:36:31;8.73;;;7.93;;
9445;SDS011;4761;49.490;10.908;2022-11-20T03:38:56;8.40;;;7.60;;
9445;SDS011;4761;49.490;10.908;2022-11-20T03:41:26;8.70;;;7.90;;
9445;SDS011;4761;49.490;10.908;2022-11-20T03:43:54;8.60;;;7.80;;
9445;SDS011;4761;49.490;10.908;2022-11-20T03:46:21;7.60;;;6.90;;
9445;SDS011;4761;49.490;10.908;2022-11-20T03:48:47;7.33;;;6.63;;
9445;SDS011;4761;49.490;10.908;2022-11-20T03:51:18;8.20;;;7.23;;
9445;SDS011;4761;49.490;10.908;2022-11-20T03:53:45;7.67;;;6.97;;
9445;SDS011;4761;49.490;10.908;2022-11-20T03:56:13;7.13;;;6.47;;
9445;SDS011;4761;49.490;10.908;2022-11-20T03:58:40;8.13;;;7.33;;
9445;SDS011;4761;49.490;10.908;2022-11-20T04:01:06;8.03;;;7.33;;
9445;SDS011;4761;49.490;10.908;2022-11-20T04:03:36;8.77;;;7.80;;
9445;SDS011;4761;49.490;10.908;2022-11-20T04:06:07;7.57;;;6.87;;
9445;SDS011;4761;49.490;10.908;2022-11-20T04:08:35;8.03;;;7.23;;
9445;SDS011;4761;49.490;10.908;2022-11-20T04:11:17;7.80;;;7.00;;
9445;SDS011;4761;49.490;10.908;2022-11-20T04:13:49;8.07;;;7.37;;
9445;SDS011;4761;49.490;10.908;2022-11-20T04:16:16;7.43;;;6.73;;
9445;SDS011;4761;49.490;10.908;2022-11-20T04:18:43;7.73;;;7.03;;
9445;SDS011;4761;49.490;10.908;2022-11-20T04:21:09;7.70;;;7.00;;
9445;SDS011;4761;49.490;10.908;2022-11-20T04:23:35;8.10;;;7.30;;
9445;SDS011;4761;49.490;10.908;2022-11-20T04:26:05;7.80;;;7.10;;
9445;SDS011;4761;49.490;10.908;2022-11-20T04:28:35;8.30;;;7.50;;
9445;SDS011;4761;49.490;10.908;2022-11-20T04:31:01;10.33;;;7.07;;
9445;SDS011;4761;49.490;10.908;2022-11-20T04:33:32;7.70;;;7.00;;
9445;SDS011;4761;49.490;10.908;2022-11-20T04:36:02;7.37;;;6.67;;
9445;SDS011;4761;49.490;10.908;2022-11-20T04:38:30;6.83;;;6.17;;
9445;SDS011;4761;49.490;10.908;2022-11-20T04:40:56;7.23;;;6.63;;
9445;SDS011;4761;49.490;10.908;2022-11-20T04:43:23;7.60;;;6.90;;
9445;SDS011;4761;49.490;10.908;2022-11-20T04:45:52;7.57;;;6.87;;
9445;SDS011;4761;49.490;10.908;2022-11-20T04:48:18;6.80;;;6.20;;
9445;SDS011;4761;49.490;10.908;2022-11-20T04:50:44;7.30;;;6.70;;
9445;SDS011;4761;49.490;10.908;2022-11-20T04:53:10;7.60;;;6.90;;
9445;SDS011;4761;49.490;10.908;2022-11-20T04:55:35;7.03;;;6.37;;
9445;SDS011;4761;49.490;10.908;2022-11-20T04:58:01;7.50;;;6.80;;
9445;SDS011;4761;49.490;10.908;2022-11-20T05:00:26;6.87;;;6.17;;
9445;SDS011;4761;49.490;10.908;2022-11-20T05:02:52;6.40;;;5.80;;
9445;SDS011;4761;49.490;10.908;2022-11-20T05:05:18;7.03;;;6.33;;
9445;SDS011;4761;49.490;10.908;2022-11-20T05:07:43;6.97;;;6.30;;
9445;SDS011;4761;49.490;10.908;2022-11-20T05:10:09;6.60;;;6.00;;
9445;SDS011;4761;49.490;10.908;2022-11-20T05:12:34;6.70;;;6.10;;
9445;SDS011;4761;49.490;10.908;2022-11-20T05:15:00;6.57;;;5.97;;
9445;SDS011;4761;49.490;10.908;2022-11-20T05:17:25;6.90;;;6.20;;
9445;SDS011;4761;49.490;10.908;2022-11-20T05:19:51;6.10;;;5.60;;
9445;SDS011;4761;49.490;10.908;2022-11-20T05:22:16;6.63;;;6.00;;
9445;SDS011;4761;49.490;10.908;2022-11-20T05:24:42;6.80;;;6.10;;
9445;SDS011;4761;49.490;10.908;2022-11-20T05:27:07;6.33;;;5.73;;
9445;SDS011;4761;49.490;10.908;2022-11-20T05:29:33;6.17;;;5.67;;
9445;SDS011;4761;49.490;10.908;2022-11-20T05:31:58;5.73;;;5.23;;
9445;SDS011;4761;49.490;10.908;2022-11-20T05:34:24;6.13;;;5.63;;
9445;SDS011;4761;49.490;10.908;2022-11-20T05:36:49;6.47;;;5.87;;
9445;SDS011;4761;49.490;10.908;2022-11-20T05:39:15;6.07;;;5.47;;
9445;SDS011;4761;49.490;10.908;2022-11-20T05:41:40;6.77;;;6.17;;
9445;SDS011;4761;49.490;10.908;2022-11-20T05:44:06;6.40;;;5.83;;
9445;SDS011;4761;49.490;10.908;2022-11-20T05:46:32;6.10;;;5.60;;
9445;SDS011;4761;49.490;10.908;2022-11-20T05:48:57;6.70;;;6.10;;
9445;SDS011;4761;49.490;10.908;2022-11-20T05:51:23;6.40;;;5.63;;
9445;SDS011;4761;49.490;10.908;2022-11-20T05:53:50;6.93;;;6.23;;
9445;SDS011;4761;49.490;10.908;2022-11-20T05:56:16;6.07;;;5.57;;
9445;SDS011;4761;49.490;10.908;2022-11-20T05:58:44;5.97;;;5.37;;
9445;SDS011;4761;49.490;10.908;2022-11-20T06:01:11;6.10;;;5.60;;
9445;SDS011;4761;49.490;10.908;2022-11-20T06:03:47;6.10;;;5.60;;
9445;SDS011;4761;49.490;10.908;2022-11-20T06:06:15;5.93;;;5.43;;
9445;SDS011;4761;49.490;10.908;2022-11-20T06:08:42;6.43;;;5.93;;
9445;SDS011;4761;49.490;10.908;2022-11-20T06:11:09;6.37;;;5.77;;
9445;SDS011;4761;49.490;10.908;2022-11-20T06:13:36;5.80;;;5.30;;
9445;SDS011;4761;49.490;10.908;2022-11-20T06:16:02;6.00;;;5.50;;
9445;SDS011;4761;49.490;10.908;2022-11-20T06:18:28;6.37;;;5.77;;
9445;SDS011;4761;49.490;10.908;2022-11-20T06:21:01;5.50;;;5.00;;
9445;SDS011;4761;49.490;10.908;2022-11-20T06:23:29;6.27;;;5.67;;
9445;SDS011;4761;49.490;10.908;2022-11-20T06:25:55;6.13;;;5.53;;
9445;SDS011;4761;49.490;10.908;2022-11-20T06:28:21;6.60;;;6.00;;
9445;SDS011;4761;49.490;10.908;2022-11-20T06:30:47;6.73;;;6.13;;
9445;SDS011;4761;49.490;10.908;2022-11-20T06:33:12;6.27;;;5.67;;
9445;SDS011;4761;49.490;10.908;2022-11-20T06:35:38;6.03;;;5.33;;
9445;SDS011;4761;49.490;10.908;2022-11-20T06:38:03;5.73;;;5.23;;
9445;SDS011;4761;49.490;10.908;2022-11-20T06:40:29;6.53;;;5.93;;
9445;SDS011;4761;49.490;10.908;2022-11-20T06:42:54;6.43;;;5.83;;
9445;SDS011;4761;49.490;10.908;2022-11-20T06:45:20;5.67;;;5.17;;
9445;SDS011;4761;49.490;10.908;2022-11-20T06:47:46;5.97;;;5.47;;
9445;SDS011;4761;49.490;10.908;2022-11-20T06:50:12;6.53;;;5.70;;
9445;SDS011;4761;49.490;10.908;2022-11-20T06:52:38;6.10;;;5.60;;
9445;SDS011;4761;49.490;10.908;2022-11-20T06:55:03;6.20;;;5.60;;
9445;SDS011;4761;49.490;10.908;2022-11-20T06:57:29;5.90;;;5.33;;
9445;SDS011;4761;49.490;10.908;2022-11-20T06:59:55;6.60;;;6.00;;
9445;SDS011;4761;49.490;10.908;2022-11-20T07:02:20;6.13;;;5.57;;
9445;SDS011;4761;49.490;10.908;2022-11-20T07:04:46;5.90;;;5.40;;
9445;SDS011;4761;49.490;10.908;2022-11-20T07:07:11;6.80;;;6.20;;
9445;SDS011;4761;49.490;10.908;2022-11-20T07:09:37;6.57;;;5.97;;
9445;SDS011;4761;49.490;10.908;2022-11-20T07:12:02;6.43;;;5.93;;
9445;SDS011;4761;49.490;10.908;2022-11-20T07:14:28;6.23;;;5.63;;
9445;SDS011;4761;49.490;10.908;2022-11-20T07:16:54;6.67;;;6.07;;
9445;SDS011;4761;49.490;10.908;2022-11-20T07:19:19;10.20;;;9.20;;
9445;SDS011;4761;49.490;10.908;2022-11-20T07:21:45;10.80;;;9.70;;
9445;SDS011;4761;49.490;10.908;2022-11-20T07:24:11;13.70;;;12.07;;
9445;SDS011;4761;49.490;10.908;2022-11-20T07:26:36;10.97;;;9.87;;
9445;SDS011;4761;49.490;10.908;2022-11-20T07:29:02;9.67;;;8.77;;
9445;SDS011;4761;49.490;10.908;2022-11-20T07:31:27;9.67;;;8.73;;
9445;SDS011;4761;49.490;10.908;2022-11-20T07:33:53;9.97;;;8.97;;
9445;SDS011;4761;49.490;10.908;2022-11-20T07:36:18;10.13;;;9.23;;
9445;SDS011;4761;49.490;10.908;2022-11-20T07:38:44;9.07;;;8.17;;
9445;SDS011;4761;49.490;10.908;2022-11-20T07:41:09;8.97;;;8.07;;
9445;SDS011;4761;49.490;10.908;2022-11-20T07:43:35;9.77;;;8.87;;
9445;SDS011;4761;49.490;10.908;2022-11-20T07:46:00;8.83;;;8.03;;
9445;SDS011;4761;49.490;10.908;2022-11-20T07:48:26;9.30;;;8.50;;
9445;SDS011;4761;49.490;10.908;2022-11-20T07:50:55;9.03;;;8.23;;
9445;SDS011;4761;49.490;10.908;2022-11-20T07:53:21;10.53;;;9.07;;
9445;SDS011;4761;49.490;10.908;2022-11-20T07:55:47;8.27;;;7.47;;
9445;SDS011;4761;49.490;10.908;2022-11-20T07:58:13;8.37;;;7.57;;
9445;SDS011;4761;49.490;10.908;2022-11-20T08:00:39;8.50;;;7.70;;
9445;SDS011;4761;49.490;10.908;2022-11-20T08:03:06;9.10;;;8.20;;
9445;SDS011;4761;49.490;10.908;2022-11-20T08:05:31;9.00;;;8.20;;
9445;SDS011;4761;49.490;10.908;2022-11-20T08:07:57;9.27;;;8.47;;
9445;SDS011;4761;49.490;10.908;2022-11-20T08:10:23;8.97;;;8.13;;
9445;SDS011;4761;49.490;10.908;2022-11-20T08:12:49;9.07;;;8.27;;
9445;SDS011;4761;49.490;10.908;2022-11-20T08:15:35;9.73;;;8.83;;
9445;SDS011;4761;49.490;10.908;2022-11-20T08:20:28;9.03;;;8.23;;
9445;SDS011;4761;49.490;10.908;2022-11-20T08:23:01;9.00;;;8.20;;
9445;SDS011;4761;49.490;10.908;2022-11-20T08:25:28;8.67;;;7.87;;
9445;SDS011;4761;49.490;10.908;2022-11-20T08:27:56;8.50;;;7.80;;
9445;SDS011;4761;49.490;10.908;2022-11-20T08:30:25;9.00;;;8.20;;
9445;SDS011;4761;49.490;10.908;2022-11-20T08:32:51;8.83;;;7.93;;
9445;SDS011;4761;49.490;10.908;2022-11-20T08:35:17;7.80;;;7.10;;
9445;SDS011;4761;49.490;10.908;2022-11-20T08:37:45;8.33;;;7.60;;
9445;SDS011;4761;49.490;10.908;2022-11-20T08:40:14;8.70;;;7.90;;
9445;SDS011;4761;49.490;10.908;2022-11-20T08:42:47;8.90;;;8.10;;
9445;SDS011;4761;49.490;10.908;2022-11-20T08:45:14;8.50;;;7.70;;
9445;SDS011;4761;49.490;10.908;2022-11-20T08:47:39;7.80;;;7.10;;
9445;SDS011;4761;49.490;10.908;2022-11-20T08:50:06;8.07;;;7.37;;
9445;SDS011;4761;49.490;10.908;2022-11-20T08:52:31;7.47;;;6.80;;
9445;SDS011;4761;49.490;10.908;2022-11-20T08:54:57;8.10;;;7.40;;
9445;SDS011;4761;49.490;10.908;2022-11-20T08:57:23;8.03;;;7.33;;
9445;SDS011;4761;49.490;10.908;2022-11-20T08:59:48;7.80;;;7.10;;
9445;SDS011;4761;49.490;10.908;2022-11-20T09:02:14;6.43;;;5.93;;
9445;SDS011;4761;49.490;10.908;2022-11-20T09:04:40;6.10;;;5.60;;
9445;SDS011;4761;49.490;10.908;2022-11-20T09:07:05;7.20;;;6.17;;
9445;SDS011;4761;49.490;10.908;2022-11-20T09:09:31;7.13;;;6.53;;
9445;SDS011;4761;49.490;10.908;2022-11-20T09:11:57;7.70;;;5.80;;
9445;SDS011;4761;49.490;10.908;2022-11-20T09:14:23;6.37;;;5.77;;
9445;SDS011;4761;49.490;10.908;2022-11-20T09:16:53;6.90;;;6.30;;
9445;SDS011;4761;49.490;10.908;2022-11-20T09:19:19;6.80;;;6.20;;
9445;SDS011;4761;49.490;10.908;2022-11-20T09:21:45;6.50;;;5.90;;
9445;SDS011;4761;49.490;10.908;2022-11-20T09:24:11;6.60;;;6.00;;
9445;SDS011;4761;49.490;10.908;2022-11-20T09:26:36;6.63;;;5.93;;
9445;SDS011;4761;49.490;10.908;2022-11-20T09:29:02;6.83;;;6.00;;
9445;SDS011;4761;49.490;10.908;2022-11-20T09:31:27;5.93;;;5.43;;
9445;SDS011;4761;49.490;10.908;2022-11-20T09:33:53;6.43;;;5.83;;
9445;SDS011;4761;49.490;10.908;2022-11-20T09:36:19;7.20;;;6.50;;
9445;SDS011;4761;49.490;10.908;2022-11-20T09:38:45;8.30;;;6.63;;
9445;SDS011;4761;49.490;10.908;2022-11-20T09:46:53;8.33;;;6.63;;
9445;SDS011;4761;49.490;10.908;2022-11-20T09:54:50;8.37;;;7.03;;
9445;SDS011;4761;49.490;10.908;2022-11-20T09:57:20;7.77;;;6.93;;
9445;SDS011;4761;49.490;10.908;2022-11-20T09:59:53;9.57;;;7.23;;
9445;SDS011;4761;49.490;10.908;2022-11-20T10:02:37;8.23;;;6.73;;
9445;SDS011;4761;49.490;10.908;2022-11-20T10:05:11;8.07;;;7.00;;
9445;SDS011;4761;49.490;10.908;2022-11-20T10:08:07;8.20;;;6.80;;
9445;SDS011;4761;49.490;10.908;2022-11-20T10:29:32;9.27;;;7.83;;
9445;SDS011;4761;49.490;10.908;2022-11-20T10:32:02;8.23;;;7.13;;
9445;SDS011;4761;49.490;10.908;2022-11-20T10:34:42;8.10;;;7.30;;
9445;SDS011;4761;49.490;10.908;2022-11-20T10:37:21;9.07;;;7.87;;
9445;SDS011;4761;49.490;10.908;2022-11-20T10:39:51;8.00;;;7.30;;
9445;SDS011;4761;49.490;10.908;2022-11-20T10:48:23;8.77;;;7.97;;
9445;SDS011;4761;49.490;10.908;2022-11-20T10:53:40;8.53;;;7.73;;
9445;SDS011;4761;49.490;10.908;2022-11-20T10:59:11;8.20;;;7.50;;
9445;SDS011;4761;49.490;10.908;2022-11-20T11:02:00;8.40;;;7.60;;
9445;SDS011;4761;49.490;10.908;2022-11-20T11:04:30;8.07;;;7.27;;
9445;SDS011;4761;49.490;10.908;2022-11-20T11:07:12;8.40;;;7.43;;
9445;SDS011;4761;49.490;10.908;2022-11-20T11:09:49;8.10;;;7.40;;
9445;SDS011;4761;49.490;10.908;2022-11-20T11:12:22;7.67;;;6.97;;
9445;SDS011;4761;49.490;10.908;2022-11-20T11:14:53;7.80;;;7.10;;
9445;SDS011;4761;49.490;10.908;2022-11-20T11:20:11;8.43;;;7.63;;
9445;SDS011;4761;49.490;10.908;2022-11-20T11:22:45;8.90;;;8.10;;
9445;SDS011;4761;49.490;10.908;2022-11-20T11:25:35;7.83;;;7.13;;
9445;SDS011;4761;49.490;10.908;2022-11-20T11:28:03;8.00;;;7.20;;
9445;SDS011;4761;49.490;10.908;2022-11-20T11:30:45;8.53;;;7.73;;
9445;SDS011;4761;49.490;10.908;2022-11-20T11:35:59;8.27;;;7.50;;
9445;SDS011;4761;49.490;10.908;2022-11-20T11:38:32;7.90;;;7.20;;
9445;SDS011;4761;49.490;10.908;2022-11-20T11:41:01;8.83;;;8.03;;
9445;SDS011;4761;49.490;10.908;2022-11-20T11:43:32;8.67;;;7.87;;
9445;SDS011;4761;49.490;10.908;2022-11-20T11:49:00;9.10;;;8.20;;
9445;SDS011;4761;49.490;10.908;2022-11-20T11:57:05;9.10;;;8.10;;
9445;SDS011;4761;49.490;10.908;2022-11-20T12:04:52;7.57;;;6.87;;
9445;SDS011;4761;49.490;10.908;2022-11-20T12:07:28;7.50;;;6.80;;
9445;SDS011;4761;49.490;10.908;2022-11-20T12:10:04;6.97;;;6.30;;
9445;SDS011;4761;49.490;10.908;2022-11-20T12:13:01;7.27;;;6.57;;
9445;SDS011;4761;49.490;10.908;2022-11-20T12:15:29;7.43;;;6.73;;
9445;SDS011;4761;49.490;10.908;2022-11-20T12:17:56;7.27;;;6.60;;
9445;SDS011;4761;49.490;10.908;2022-11-20T12:20:24;7.33;;;6.63;;
9445;SDS011;4761;49.490;10.908;2022-11-20T12:25:30;7.60;;;6.90;;
9445;SDS011;4761;49.490;10.908;2022-11-20T12:30:29;12.50;;;9.23;;
9445;SDS011;4761;49.490;10.908;2022-11-20T12:33:12;15.00;;;10.90;;
9445;SDS011;4761;49.490;10.908;2022-11-20T12:36:15;16.37;;;12.80;;
9445;SDS011;4761;49.490;10.908;2022-11-20T12:55:09;5.37;;;4.87;;
9445;SDS011;4761;49.490;10.908;2022-11-20T12:57:47;5.20;;;4.70;;
9445;SDS011;4761;49.490;10.908;2022-11-20T13:00:22;4.70;;;4.30;;
9445;SDS011;4761;49.490;10.908;2022-11-20T13:08:36;3.77;;;3.47;;
9445;SDS011;4761;49.490;10.908;2022-11-20T13:16:31;4.53;;;4.13;;
9445;SDS011;4761;49.490;10.908;2022-11-20T13:19:09;4.77;;;4.27;;
9445;SDS011;4761;49.490;10.908;2022-11-20T13:21:39;6.77;;;5.47;;
9445;SDS011;4761;49.490;10.908;2022-11-20T13:27:05;4.93;;;4.23;;
9445;SDS011;4761;49.490;10.908;2022-11-20T13:29:44;3.70;;;3.40;;
9445;SDS011;4761;49.490;10.908;2022-11-20T13:32:15;5.03;;;4.50;;
9445;SDS011;4761;49.490;10.908;2022-11-20T13:34:52;4.43;;;4.00;;
9445;SDS011;4761;49.490;10.908;2022-11-20T13:42:38;6.07;;;4.97;;
9445;SDS011;4761;49.490;10.908;2022-11-20T13:45:09;9.60;;;8.20;;
9445;SDS011;4761;49.490;10.908;2022-11-20T13:47:49;12.03;;;10.07;;
9445;SDS011;4761;49.490;10.908;2022-11-20T13:50:16;6.50;;;5.13;;
9445;SDS011;4761;49.490;10.908;2022-11-20T13:55:24;11.40;;;9.80;;
9445;SDS011;4761;49.490;10.908;2022-11-20T13:58:51;13.70;;;11.83;;
9445;SDS011;4761;49.490;10.908;2022-11-20T14:01:17;9.50;;;8.40;;
9445;SDS011;4761;49.490;10.908;2022-11-20T14:03:46;7.10;;;6.40;;
9445;SDS011;4761;49.490;10.908;2022-11-20T14:06:20;7.37;;;6.67;;
9445;SDS011;4761;49.490;10.908;2022-11-20T14:08:47;7.17;;;6.47;;
9445;SDS011;4761;49.490;10.908;2022-11-20T14:13:55;7.60;;;6.87;;
9445;SDS011;4761;49.490;10.908;2022-11-20T14:16:35;6.20;;;5.70;;
9445;SDS011;4761;49.490;10.908;2022-11-20T14:19:18;5.33;;;4.93;;
9445;SDS011;4761;49.490;10.908;2022-11-20T14:22:14;4.60;;;4.20;;
9445;SDS011;4761;49.490;10.908;2022-11-20T14:24:43;3.80;;;3.50;;
9445;SDS011;4761;49.490;10.908;2022-11-20T14:27:11;3.60;;;3.30;;
9445;SDS011;4761;49.490;10.908;2022-11-20T14:29:43;4.53;;;4.13;;
9445;SDS011;4761;49.490;10.908;2022-11-20T14:32:10;5.70;;;5.13;;
9445;SDS011;4761;49.490;10.908;2022-11-20T14:34:40;6.47;;;5.77;;
9445;SDS011;4761;49.490;10.908;2022-11-20T14:37:12;5.70;;;5.20;;
9445;SDS011;4761;49.490;10.908;2022-11-20T14:39:51;5.30;;;4.80;;
9445;SDS011;4761;49.490;10.908;2022-11-20T14:42:23;4.77;;;4.37;;
9445;SDS011;4761;49.490;10.908;2022-11-20T14:44:50;4.60;;;4.20;;
9445;SDS011;4761;49.490;10.908;2022-11-20T14:47:21;3.80;;;3.50;;
9445;SDS011;4761;49.490;10.908;2022-11-20T14:49:50;3.77;;;3.47;;
9445;SDS011;4761;49.490;10.908;2022-11-20T14:52:18;4.63;;;4.23;;
9445;SDS011;4761;49.490;10.908;2022-11-20T14:55:24;5.73;;;5.20;;
9445;SDS011;4761;49.490;10.908;2022-11-20T14:57:38;6.10;;;5.60;;
9445;SDS011;4761;49.490;10.908;2022-11-20T15:02:40;3.67;;;3.37;;
9445;SDS011;4761;49.490;10.908;2022-11-20T15:05:07;4.30;;;3.90;;
9445;SDS011;4761;49.490;10.908;2022-11-20T15:07:37;3.80;;;3.50;;
9445;SDS011;4761;49.490;10.908;2022-11-20T15:10:10;5.37;;;4.97;;
9445;SDS011;4761;49.490;10.908;2022-11-20T15:12:38;5.80;;;5.30;;
9445;SDS011;4761;49.490;10.908;2022-11-20T15:15:11;5.60;;;5.13;;
9445;SDS011;4761;49.490;10.908;2022-11-20T15:17:41;5.60;;;5.10;;
9445;SDS011;4761;49.490;10.908;2022-11-20T15:20:14;5.13;;;4.73;;
9445;SDS011;4761;49.490;10.908;2022-11-20T15:22:41;5.13;;;4.73;;
9445;SDS011;4761;49.490;10.908;2022-11-20T15:25:14;5.87;;;4.67;;
9445;SDS011;4761;49.490;10.908;2022-11-20T15:27:41;5.30;;;4.80;;
9445;SDS011;4761;49.490;10.908;2022-11-20T15:30:18;5.10;;;4.60;;
9445;SDS011;4761;49.490;10.908;2022-11-20T15:32:45;4.97;;;4.50;;
9445;SDS011;4761;49.490;10.908;2022-11-20T15:35:11;5.77;;;5.20;;
9445;SDS011;4761;49.490;10.908;2022-11-20T15:37:37;5.67;;;5.07;;
9445;SDS011;4761;49.490;10.908;2022-11-20T15:40:04;5.30;;;4.77;;
9445;SDS011;4761;49.490;10.908;2022-11-20T15:42:30;4.70;;;4.20;;
9445;SDS011;4761;49.490;10.908;2022-11-20T15:44:56;4.53;;;4.10;;
9445;SDS011;4761;49.490;10.908;2022-11-20T15:47:25;4.50;;;4.10;;
9445;SDS011;4761;49.490;10.908;2022-11-20T15:49:54;4.93;;;4.50;;
9445;SDS011;4761;49.490;10.908;2022-11-20T15:52:19;4.77;;;4.33;;
9445;SDS011;4761;49.490;10.908;2022-11-20T15:54:45;4.40;;;4.00;;
9445;SDS011;4761;49.490;10.908;2022-11-20T15:57:11;4.30;;;3.90;;
9445;SDS011;4761;49.490;10.908;2022-11-20T15:59:37;4.70;;;4.20;;
9445;SDS011;4761;49.490;10.908;2022-11-20T16:02:12;4.97;;;4.40;;
9445;SDS011;4761;49.490;10.908;2022-11-20T16:04:39;4.23;;;3.80;;
9445;SDS011;4761;49.490;10.908;2022-11-20T16:07:04;9.63;;;8.67;;
9445;SDS011;4761;49.490;10.908;2022-11-20T16:09:30;29.77;;;26.67;;
9445;SDS011;4761;49.490;10.908;2022-11-20T16:11:56;22.43;;;20.10;;
9445;SDS011;4761;49.490;10.908;2022-11-20T16:14:24;19.97;;;17.97;;
9445;SDS011;4761;49.490;10.908;2022-11-20T16:17:08;19.10;;;17.10;;
9445;SDS011;4761;49.490;10.908;2022-11-20T16:19:34;16.10;;;14.43;;
9445;SDS011;4761;49.490;10.908;2022-11-20T16:22:00;14.47;;;12.97;;
9445;SDS011;4761;49.490;10.908;2022-11-20T16:24:26;13.87;;;12.47;;
9445;SDS011;4761;49.490;10.908;2022-11-20T16:26:52;12.47;;;11.27;;
9445;SDS011;4761;49.490;10.908;2022-11-20T16:29:18;10.93;;;9.83;;
9445;SDS011;4761;49.490;10.908;2022-11-20T16:31:44;10.13;;;9.13;;
9445;SDS011;4761;49.490;10.908;2022-11-20T16:34:09;9.67;;;8.77;;
9445;SDS011;4761;49.490;10.908;2022-11-20T16:36:35;10.40;;;8.93;;
9445;SDS011;4761;49.490;10.908;2022-11-20T16:39:04;10.03;;;9.03;;
9445;SDS011;4761;49.490;10.908;2022-11-20T16:41:30;10.10;;;9.10;;
9445;SDS011;4761;49.490;10.908;2022-11-20T16:43:58;9.33;;;8.43;;
9445;SDS011;4761;49.490;10.908;2022-11-20T16:46:26;8.73;;;7.83;;
9445;SDS011;4761;49.490;10.908;2022-11-20T16:49:00;8.73;;;7.83;;
9445;SDS011;4761;49.490;10.908;2022-11-20T16:51:30;8.73;;;7.87;;
9445;SDS011;4761;49.490;10.908;2022-11-20T16:54:00;7.83;;;7.13;;
9445;SDS011;4761;49.490;10.908;2022-11-20T16:56:27;8.10;;;7.23;;
9445;SDS011;4761;49.490;10.908;2022-11-20T16:58:53;7.73;;;6.93;;
9445;SDS011;4761;49.490;10.908;2022-11-20T17:01:22;7.73;;;6.73;;
9445;SDS011;4761;49.490;10.908;2022-11-20T17:03:55;7.13;;;6.40;;
9445;SDS011;4761;49.490;10.908;2022-11-20T17:06:30;15.10;;;7.20;;